createdAt,value
2023-04-20T00:00:56.312Z,4.02
2023-04-20T00:03:23.262Z,4.03
2023-04-20T00:05:50.220Z,4.03
2023-04-20T00:08:18.411Z,4.05
2023-04-20T00:10:45.542Z,4.03
2023-04-20T00:13:12.590Z,4.04
2023-04-20T00:15:39.336Z,4.04
2023-04-20T00:18:06.605Z,4.07
2023-04-20T00:20:33.408Z,4.03
2023-04-20T00:23:00.214Z,4.03
2023-04-20T00:25:28.346Z,3.99
2023-04-20T00:27:55.073Z,3.86
2023-04-20T00:30:22.065Z,3.47
2023-04-20T00:32:48.883Z,3.52
2023-04-20T00:35:15.643Z,3.55
2023-04-20T00:37:42.403Z,3.51
2023-04-20T00:40:09.779Z,3.55
2023-04-20T00:42:38.008Z,3.48
2023-04-20T00:45:05.770Z,3.43
2023-04-20T00:47:32.640Z,3.47
2023-04-20T00:49:59.570Z,3.49
2023-04-20T00:52:27.433Z,3.51
2023-04-20T00:54:54.973Z,3.44
2023-04-20T00:57:22.254Z,3.32
2023-04-20T00:59:50.704Z,3.39
2023-04-20T01:02:17.601Z,3.45
2023-04-20T01:04:44.566Z,3.46
2023-04-20T01:07:11.412Z,3.48
2023-04-20T01:09:38.435Z,3.50
2023-04-20T01:12:05.779Z,3.54
2023-04-20T01:14:32.582Z,3.53
2023-04-20T01:17:00.675Z,3.53
2023-04-20T01:19:27.514Z,3.55
2023-04-20T01:21:54.262Z,3.53
2023-04-20T01:24:22.400Z,3.48
2023-04-20T01:26:49.172Z,3.41
2023-04-20T01:29:16.227Z,3.34
2023-04-20T01:31:43.258Z,3.34
2023-04-20T01:34:10.084Z,3.27
2023-04-20T01:36:36.886Z,3.26
2023-04-20T01:39:03.793Z,3.21
2023-04-20T01:41:31.981Z,3.20
2023-04-20T01:43:58.758Z,3.21
2023-04-20T01:46:25.666Z,3.23
2023-04-20T01:48:52.444Z,3.22
2023-04-20T01:51:19.177Z,3.24
2023-04-20T01:53:45.921Z,3.28
2023-04-20T01:56:12.674Z,3.28
2023-04-20T01:58:40.889Z,3.29
2023-04-20T02:01:07.761Z,3.33
2023-04-20T02:03:34.827Z,3.33
2023-04-20T02:06:01.842Z,3.28
2023-04-20T02:08:28.557Z,3.39
2023-04-20T02:10:55.311Z,3.25
2023-04-20T02:13:22.110Z,3.23
2023-04-20T02:15:50.325Z,3.22
2023-04-20T02:18:17.149Z,3.10
2023-04-20T02:20:44.305Z,3.04
2023-04-20T02:23:11.571Z,3.09
2023-04-20T02:25:38.471Z,3.09
2023-04-20T02:28:05.538Z,3.14
2023-04-20T02:30:32.337Z,3.16
2023-04-20T02:33:00.485Z,3.19
2023-04-20T02:35:27.451Z,3.21
2023-04-20T02:37:54.205Z,3.23
2023-04-20T02:40:21.126Z,3.25
2023-04-20T02:42:47.922Z,3.26
2023-04-20T02:45:14.877Z,3.27
2023-04-20T02:47:41.836Z,3.27
2023-04-20T02:50:11.152Z,3.28
2023-04-20T02:52:37.976Z,3.27
2023-04-20T02:55:05.422Z,3.24
2023-04-20T02:57:32.255Z,3.24
2023-04-20T02:59:59.043Z,3.26
2023-04-20T03:02:26.025Z,3.24
2023-04-20T03:04:53.021Z,3.27
2023-04-20T03:07:21.273Z,3.29
2023-04-20T03:09:48.065Z,3.25
2023-04-20T03:12:14.912Z,3.24
2023-04-20T03:14:41.630Z,3.21
2023-04-20T03:17:08.360Z,3.16
2023-04-20T03:19:35.179Z,2.97
2023-04-20T03:22:02.077Z,3.04
2023-04-20T03:24:30.271Z,3.13
2023-04-20T03:26:56.993Z,3.16
2023-04-20T03:29:23.797Z,3.16
2023-04-20T03:31:50.644Z,3.17
2023-04-20T03:34:17.572Z,3.18
2023-04-20T03:36:44.360Z,3.18
2023-04-20T03:39:11.110Z,3.15
2023-04-20T03:41:39.228Z,3.05
2023-04-20T03:44:05.965Z,3.09
2023-04-20T03:46:38.817Z,3.08
2023-04-20T03:49:05.815Z,3.13
2023-04-20T03:51:32.627Z,3.09
2023-04-20T03:53:59.394Z,2.91
2023-04-20T03:56:26.201Z,2.93
2023-04-20T03:58:54.381Z,2.93
2023-04-20T04:01:21.157Z,2.85
2023-04-20T04:03:48.169Z,2.88
2023-04-20T04:06:15.103Z,2.80
2023-04-20T04:08:41.888Z,2.69
2023-04-20T04:11:08.633Z,2.57
2023-04-20T04:13:35.396Z,2.57
2023-04-20T04:16:03.905Z,2.60
2023-04-20T04:18:31.395Z,2.68
2023-04-20T04:20:58.236Z,2.68
2023-04-20T04:23:25.071Z,2.49
2023-04-20T04:25:51.917Z,2.46
2023-04-20T04:28:18.693Z,2.57
2023-04-20T04:30:46.513Z,2.47
2023-04-20T04:33:14.870Z,2.44
2023-04-20T04:35:41.690Z,2.42
2023-04-20T04:38:08.534Z,2.24
2023-04-20T04:40:35.362Z,2.35
2023-04-20T04:43:02.099Z,2.34
2023-04-20T04:45:28.941Z,2.41
2023-04-20T04:47:55.742Z,2.27
2023-04-20T04:50:23.873Z,2.28
2023-04-20T04:52:50.580Z,2.24
2023-04-20T04:55:17.551Z,2.24
2023-04-20T04:57:44.428Z,2.18
2023-04-20T05:00:12.129Z,2.15
2023-04-20T05:02:39.256Z,2.23
2023-04-20T05:05:09.393Z,2.36
2023-04-20T05:07:37.938Z,2.35
2023-04-20T05:10:05.742Z,2.44
2023-04-20T05:12:32.575Z,2.38
2023-04-20T05:14:59.353Z,2.45
2023-04-20T05:17:26.136Z,2.47
2023-04-20T05:19:52.884Z,2.51
2023-04-20T05:22:19.711Z,2.63
2023-04-20T05:24:48.060Z,2.73
2023-04-20T05:27:14.915Z,2.77
2023-04-20T05:29:42.104Z,2.71
2023-04-20T05:32:08.981Z,2.73
2023-04-20T05:34:35.895Z,2.86
2023-04-20T05:37:04.227Z,2.93
2023-04-20T05:39:31.074Z,2.82
2023-04-20T05:41:59.347Z,2.73
2023-04-20T05:44:26.177Z,2.88
2023-04-20T05:46:53.013Z,2.90
2023-04-20T05:49:19.868Z,2.80
2023-04-20T05:51:46.708Z,2.67
2023-04-20T05:54:13.464Z,2.78
2023-04-20T05:56:40.348Z,2.77
2023-04-20T05:59:09.101Z,2.83
2023-04-20T06:01:35.852Z,2.75
2023-04-20T06:04:02.936Z,2.89
2023-04-20T06:06:29.923Z,2.89
2023-04-20T06:08:56.773Z,2.91
2023-04-20T06:11:23.574Z,2.91
2023-04-20T06:13:50.348Z,2.73
2023-04-20T06:16:18.507Z,2.75
2023-04-20T06:18:45.349Z,2.68
2023-04-20T06:21:12.132Z,2.72
2023-04-20T06:23:38.890Z,2.89
2023-04-20T06:26:05.702Z,2.85
2023-04-20T06:28:32.573Z,2.83
2023-04-20T06:30:59.430Z,3.00
2023-04-20T06:33:27.614Z,3.18
2023-04-20T06:35:54.433Z,3.33
2023-04-20T06:38:21.220Z,3.44
2023-04-20T06:40:48.096Z,3.52
2023-04-20T06:43:14.901Z,3.48
2023-04-20T06:45:41.638Z,3.61
2023-04-20T06:48:17.343Z,3.76
2023-04-20T06:50:52.152Z,3.83
2023-04-20T06:53:18.953Z,3.87
2023-04-20T06:55:45.706Z,3.95
2023-04-20T06:58:12.570Z,3.94
2023-04-20T07:00:39.351Z,3.97
2023-04-20T07:03:06.408Z,3.81
2023-04-20T07:05:33.184Z,3.76
2023-04-20T07:08:01.324Z,3.76
2023-04-20T07:10:28.093Z,3.83
2023-04-20T07:12:54.824Z,4.15
2023-04-20T07:15:21.753Z,4.30
2023-04-20T07:17:48.741Z,4.48
2023-04-20T07:20:15.538Z,4.37
2023-04-20T07:22:42.324Z,4.38
2023-04-20T07:25:10.825Z,4.32
2023-04-20T07:27:39.088Z,4.29
2023-04-20T07:30:07.421Z,4.24
2023-04-20T07:32:35.003Z,4.14
2023-04-20T07:35:01.924Z,4.35
2023-04-20T07:37:28.793Z,4.32
2023-04-20T07:39:55.575Z,4.47
2023-04-20T07:42:23.761Z,4.52
2023-04-20T07:44:50.676Z,4.50
2023-04-20T07:47:17.585Z,4.49
2023-04-20T07:49:44.380Z,4.46
2023-04-20T07:52:16.869Z,4.44
2023-04-20T07:54:44.219Z,4.43
2023-04-20T07:57:11.012Z,4.41
2023-04-20T07:59:39.136Z,4.37
2023-04-20T08:02:06.174Z,4.27
2023-04-20T08:04:33.298Z,4.23
2023-04-20T08:07:00.457Z,4.14
2023-04-20T08:09:27.302Z,4.07
2023-04-20T08:11:55.932Z,3.99
2023-04-20T08:14:23.076Z,4.11
2023-04-20T08:16:51.688Z,4.23
2023-04-20T08:19:19.643Z,4.20
2023-04-20T08:21:46.508Z,4.18
2023-04-20T08:24:13.438Z,4.07
2023-04-20T08:26:40.208Z,4.12
2023-04-20T08:29:07.086Z,4.27
2023-04-20T08:31:33.947Z,4.41
2023-04-20T08:34:02.132Z,4.53
2023-04-20T08:36:29.000Z,4.63
2023-04-20T08:39:05.069Z,4.72
2023-04-20T08:41:31.988Z,4.73
2023-04-20T08:43:58.928Z,4.68
2023-04-20T08:46:25.988Z,4.69
2023-04-20T08:48:53.632Z,4.62
2023-04-20T08:51:23.222Z,4.60
2023-04-20T08:53:50.348Z,4.55
2023-04-20T08:56:17.154Z,4.52
2023-04-20T08:58:43.895Z,4.53
2023-04-20T09:01:12.707Z,4.51
2023-04-20T09:03:41.924Z,4.48
2023-04-20T09:06:15.450Z,4.40
2023-04-20T09:08:45.598Z,4.32
2023-04-20T09:11:22.425Z,4.23
2023-04-20T09:14:00.579Z,4.28
2023-04-20T09:16:27.918Z,4.15
2023-04-20T09:18:55.488Z,4.25
2023-04-20T09:21:23.239Z,4.32
2023-04-20T09:24:02.137Z,4.38
2023-04-20T09:26:32.562Z,4.39
2023-04-20T09:28:59.499Z,4.46
2023-04-20T09:31:26.408Z,4.49
2023-04-20T09:33:57.482Z,4.48
2023-04-20T09:36:24.533Z,4.56
2023-04-20T09:39:03.247Z,4.62
2023-04-20T09:41:31.853Z,4.63
2023-04-20T09:43:59.675Z,4.68
2023-04-20T09:46:29.171Z,4.62
2023-04-20T09:48:56.846Z,4.67
2023-04-20T09:51:25.835Z,4.64
2023-04-20T09:53:53.106Z,4.60
2023-04-20T09:56:21.857Z,4.63
2023-04-20T09:58:50.652Z,4.62
2023-04-20T10:01:17.825Z,4.62
2023-04-20T10:03:45.395Z,4.66
2023-04-20T10:06:19.828Z,4.66
2023-04-20T10:08:46.460Z,4.69
2023-04-20T10:11:34.267Z,4.73
2023-04-20T10:14:16.181Z,4.72
2023-04-20T10:16:43.395Z,4.74
2023-04-20T10:19:10.372Z,4.79
2023-04-20T10:21:46.460Z,4.80
2023-04-20T10:24:13.923Z,4.89
2023-04-20T10:26:43.781Z,4.96
2023-04-20T10:29:10.867Z,4.96
2023-04-20T10:31:38.732Z,5.11
2023-04-20T10:34:06.031Z,5.15
2023-04-20T10:36:34.847Z,5.23
2023-04-20T10:39:15.957Z,5.26
2023-04-20T10:41:53.862Z,5.22
2023-04-20T10:44:20.803Z,5.16
2023-04-20T10:46:49.221Z,5.16
2023-04-20T10:49:17.906Z,5.22
2023-04-20T10:51:48.555Z,5.26
2023-04-20T10:54:17.689Z,5.28
2023-04-20T10:56:46.597Z,5.35
2023-04-20T10:59:16.277Z,5.42
2023-04-20T11:01:44.594Z,5.53
2023-04-20T11:04:11.654Z,5.62
2023-04-20T11:06:39.798Z,5.69
2023-04-20T11:09:19.486Z,5.76
2023-04-20T11:11:46.714Z,5.82
2023-04-20T11:14:14.837Z,5.82
2023-04-20T11:16:52.423Z,5.77
2023-04-20T11:19:26.906Z,5.75
2023-04-20T11:21:54.057Z,5.70
2023-04-20T11:24:22.387Z,5.65
2023-04-20T11:26:49.513Z,5.67
2023-04-20T11:29:29.044Z,5.39
2023-04-20T11:31:56.054Z,5.30
2023-04-20T11:34:23.132Z,5.30
2023-04-20T11:36:50.442Z,5.21
2023-04-20T11:39:23.262Z,5.26
2023-04-20T11:41:50.164Z,5.44
2023-04-20T11:44:19.285Z,5.64
2023-04-20T11:46:47.547Z,5.86
2023-04-20T11:49:14.862Z,5.98
2023-04-20T11:51:41.692Z,6.02
2023-04-20T11:54:08.543Z,5.98
2023-04-20T11:56:35.272Z,5.96
2023-04-20T11:59:01.995Z,5.90
2023-04-20T12:01:28.753Z,5.63
2023-04-20T12:03:57.026Z,5.45
2023-04-20T12:06:24.004Z,5.31
2023-04-20T12:08:51.278Z,5.45
2023-04-20T12:11:18.347Z,5.65
2023-04-20T12:13:45.117Z,5.82
2023-04-20T12:16:12.056Z,6.02
2023-04-20T12:18:38.849Z,6.14
2023-04-20T12:21:07.333Z,6.20
2023-04-20T12:23:34.425Z,6.21
2023-04-20T12:26:01.153Z,6.21
2023-04-20T12:28:27.902Z,6.23
2023-04-20T12:30:54.656Z,6.24
2023-04-20T12:33:21.704Z,6.15
2023-04-20T12:35:49.052Z,6.23
2023-04-20T12:38:18.488Z,6.04
2023-04-20T12:40:49.293Z,5.97
2023-04-20T12:43:16.399Z,5.96
2023-04-20T12:45:43.138Z,6.23
2023-04-20T12:48:10.018Z,6.38
2023-04-20T12:50:36.786Z,6.02
2023-04-20T12:53:03.541Z,6.22
2023-04-20T12:55:31.866Z,6.25
2023-04-20T12:57:58.633Z,6.21
2023-04-20T13:00:25.538Z,6.13
2023-04-20T13:02:52.449Z,5.94
2023-04-20T13:05:19.358Z,5.69
2023-04-20T13:07:46.266Z,5.57
2023-04-20T13:10:13.264Z,5.66
2023-04-20T13:12:41.470Z,5.62
2023-04-20T13:15:09.358Z,5.79
2023-04-20T13:17:36.720Z,5.99
2023-04-20T13:20:04.031Z,6.16
2023-04-20T13:22:30.966Z,6.26
2023-04-20T13:24:57.791Z,6.35
2023-04-20T13:27:24.555Z,6.49
2023-04-20T13:29:53.067Z,6.61
2023-04-20T13:32:19.923Z,6.77
2023-04-20T13:34:46.699Z,6.81
2023-04-20T13:37:13.442Z,6.90
2023-04-20T13:39:40.193Z,6.97
2023-04-20T13:42:07.007Z,7.01
2023-04-20T13:44:34.069Z,7.09
2023-04-20T13:47:02.281Z,7.18
2023-04-20T13:49:29.076Z,7.21
2023-04-20T13:51:55.849Z,7.20
2023-04-20T13:54:22.683Z,7.14
2023-04-20T13:56:49.565Z,7.10
2023-04-20T13:59:16.588Z,6.91
2023-04-20T14:01:43.617Z,6.79
2023-04-20T14:04:12.130Z,6.77
2023-04-20T14:06:39.192Z,6.66
2023-04-20T14:09:05.994Z,6.67
2023-04-20T14:11:32.765Z,6.58
2023-04-20T14:13:59.533Z,6.57
2023-04-20T14:16:26.556Z,6.58
2023-04-20T14:18:53.358Z,6.60
2023-04-20T14:21:21.610Z,6.54
2023-04-20T14:23:48.662Z,6.53
2023-04-20T14:26:15.468Z,6.55
2023-04-20T14:28:42.293Z,6.29
2023-04-20T14:31:09.114Z,6.42
2023-04-20T14:33:35.882Z,6.29
2023-04-20T14:36:02.698Z,6.40
2023-04-20T14:38:30.846Z,6.46
2023-04-20T14:40:57.714Z,6.53
2023-04-20T14:43:24.535Z,6.56
2023-04-20T14:45:51.396Z,6.55
2023-04-20T14:48:18.334Z,6.51
2023-04-20T14:50:45.042Z,6.49
2023-04-20T14:53:11.884Z,6.47
2023-04-20T14:55:40.090Z,6.39
2023-04-20T14:58:06.817Z,6.12
2023-04-20T15:00:33.600Z,6.01
2023-04-20T15:03:00.482Z,6.02
2023-04-20T15:05:28.435Z,6.04
2023-04-20T15:07:57.199Z,6.00
2023-04-20T15:10:24.617Z,5.68
2023-04-20T15:12:52.745Z,5.78
2023-04-20T15:15:20.120Z,5.71
2023-04-20T15:17:47.494Z,5.70
2023-04-20T15:20:14.852Z,5.74
2023-04-20T15:22:41.649Z,5.81
2023-04-20T15:25:09.629Z,5.86
2023-04-20T15:27:36.423Z,5.87
2023-04-20T15:30:06.004Z,5.85
2023-04-20T15:32:32.860Z,5.88
2023-04-20T15:34:59.934Z,5.83
2023-04-20T15:37:27.157Z,5.79
2023-04-20T15:39:54.007Z,5.75
2023-04-20T15:42:20.784Z,5.75
2023-04-20T15:44:47.598Z,5.42
2023-04-20T15:47:15.821Z,5.43
2023-04-20T15:49:42.608Z,5.33
2023-04-20T15:52:09.387Z,5.35
2023-04-20T15:54:37.189Z,5.46
2023-04-20T15:57:04.128Z,5.48
2023-04-20T15:59:31.038Z,5.48
2023-04-20T16:01:58.090Z,5.46
2023-04-20T16:04:26.374Z,5.53
2023-04-20T16:06:53.299Z,5.60
2023-04-20T16:09:20.788Z,5.64
2023-04-20T16:11:49.123Z,5.66
2023-04-20T16:14:15.908Z,5.66
2023-04-20T16:16:42.702Z,5.61
2023-04-20T16:19:09.560Z,5.60
2023-04-20T16:21:37.747Z,5.58
2023-04-20T16:24:04.623Z,5.51
2023-04-20T16:26:31.421Z,5.48
2023-04-20T16:28:58.257Z,5.53
2023-04-20T16:31:25.154Z,5.38
2023-04-20T16:33:53.402Z,5.27
2023-04-20T16:36:20.251Z,5.16
2023-04-20T16:38:48.385Z,5.22
2023-04-20T16:41:15.230Z,5.29
2023-04-20T16:43:42.093Z,5.33
2023-04-20T16:46:12.109Z,5.39
2023-04-20T16:48:39.104Z,5.39
2023-04-20T16:51:05.952Z,5.42
2023-04-20T16:53:32.701Z,5.45
2023-04-20T16:56:02.555Z,5.48
2023-04-20T16:58:29.367Z,5.36
2023-04-20T17:00:56.309Z,5.25
2023-04-20T17:03:23.349Z,5.29
2023-04-20T17:05:50.722Z,5.30
2023-04-20T17:08:17.588Z,5.32
2023-04-20T17:10:44.517Z,5.34
2023-04-20T17:13:13.178Z,5.34
2023-04-20T17:15:40.051Z,5.29
2023-04-20T17:18:06.999Z,5.25
2023-04-20T17:20:33.945Z,5.23
2023-04-20T17:23:00.773Z,5.15
2023-04-20T17:25:27.869Z,5.12
2023-04-20T17:27:54.855Z,5.11
2023-04-20T17:30:23.708Z,5.16
2023-04-20T17:32:50.504Z,5.04
2023-04-20T17:35:17.412Z,4.96
2023-04-20T17:37:44.311Z,4.92
2023-04-20T17:40:11.518Z,4.86
2023-04-20T17:42:38.247Z,4.81
2023-04-20T17:45:06.156Z,4.81
2023-04-20T17:47:34.285Z,4.78
2023-04-20T17:50:01.068Z,4.73
2023-04-20T17:52:28.004Z,4.67
2023-04-20T17:54:54.743Z,4.55
2023-04-20T17:57:21.506Z,4.58
2023-04-20T17:59:48.376Z,4.56
2023-04-20T18:02:15.678Z,4.49
2023-04-20T18:04:44.092Z,4.54
2023-04-20T18:07:11.060Z,4.43
2023-04-20T18:09:37.849Z,4.36
2023-04-20T18:12:04.937Z,4.31
2023-04-20T18:14:31.729Z,4.23
2023-04-20T18:16:58.481Z,4.11
2023-04-20T18:19:25.396Z,4.04
2023-04-20T18:21:53.558Z,3.93
2023-04-20T18:24:20.519Z,3.82
2023-04-20T18:26:47.465Z,3.97
2023-04-20T18:29:14.232Z,4.07
2023-04-20T18:31:41.123Z,4.04
2023-04-20T18:34:08.009Z,4.08
2023-04-20T18:36:34.885Z,4.15
2023-04-20T18:39:03.152Z,4.12
2023-04-20T18:41:29.880Z,4.14
2023-04-20T18:43:56.887Z,4.13
2023-04-20T18:46:23.874Z,4.09
2023-04-20T18:48:50.729Z,4.02
2023-04-20T18:51:17.494Z,3.96
2023-04-20T18:53:44.336Z,3.94
2023-04-20T18:56:12.594Z,3.90
2023-04-20T18:58:39.373Z,3.86
2023-04-20T19:01:06.200Z,3.86
2023-04-20T19:03:33.180Z,3.85
2023-04-20T19:06:00.171Z,3.98
2023-04-20T19:08:26.982Z,3.92
2023-04-20T19:10:53.730Z,4.07
2023-04-20T19:13:22.212Z,4.09
2023-04-20T19:15:49.280Z,4.12
2023-04-20T19:18:16.041Z,4.03
2023-04-20T19:20:42.855Z,4.10
2023-04-20T19:23:09.597Z,4.08
2023-04-20T19:25:36.325Z,4.09
2023-04-20T19:28:03.226Z,4.09
2023-04-20T19:30:31.418Z,4.01
2023-04-20T19:32:59.194Z,3.92
2023-04-20T19:35:26.011Z,3.92
2023-04-20T19:37:52.881Z,3.97
2023-04-20T19:40:27.147Z,4.03
2023-04-20T19:42:55.113Z,4.11
2023-04-20T19:45:22.020Z,3.98
2023-04-20T19:47:50.374Z,4.10
2023-04-20T19:50:17.375Z,4.10
2023-04-20T19:52:44.127Z,4.04
2023-04-20T19:55:11.243Z,4.02
2023-04-20T19:57:38.183Z,4.12
2023-04-20T20:00:05.859Z,4.15
2023-04-20T20:02:32.793Z,4.07
2023-04-20T20:05:01.105Z,4.02
2023-04-20T20:07:27.822Z,4.02
2023-04-20T20:09:54.761Z,4.22
2023-04-20T20:12:21.635Z,4.19
2023-04-20T20:14:48.422Z,4.08
2023-04-20T20:17:15.503Z,4.10
2023-04-20T20:19:42.234Z,4.11
2023-04-20T20:22:10.527Z,4.20
2023-04-20T20:24:37.475Z,4.24
2023-04-20T20:27:04.464Z,4.29
2023-04-20T20:29:31.316Z,4.29
2023-04-20T20:31:58.047Z,4.21
2023-04-20T20:34:24.893Z,4.20
2023-04-20T20:36:51.667Z,4.11
2023-04-20T20:39:19.968Z,4.14
2023-04-20T20:41:47.060Z,4.20
2023-04-20T20:44:14.234Z,4.14
2023-04-20T20:46:41.070Z,4.10
2023-04-20T20:49:07.880Z,4.01
2023-04-20T20:51:34.685Z,4.00
2023-04-20T20:54:01.521Z,4.07
2023-04-20T20:56:29.753Z,4.05
2023-04-20T20:58:56.483Z,4.07
2023-04-20T21:01:23.266Z,4.09
2023-04-20T21:03:50.148Z,4.19
2023-04-20T21:06:17.473Z,4.22
2023-04-20T21:08:44.309Z,4.17
2023-04-20T21:11:11.084Z,4.23
2023-04-20T21:13:39.209Z,4.24
2023-04-20T21:16:06.272Z,4.20
2023-04-20T21:18:33.077Z,4.23
2023-04-20T21:20:59.809Z,4.24
2023-04-20T21:23:26.512Z,4.26
2023-04-20T21:25:53.565Z,4.31
2023-04-20T21:28:20.335Z,4.27
2023-04-20T21:30:48.492Z,4.26
2023-04-20T21:33:15.239Z,4.33
2023-04-20T21:35:42.021Z,4.30
2023-04-20T21:38:08.820Z,4.31
2023-04-20T21:40:35.554Z,4.32
2023-04-20T21:43:02.309Z,4.33
2023-04-20T21:45:29.028Z,4.28
2023-04-20T21:47:57.266Z,4.27
2023-04-20T21:50:24.127Z,4.31
2023-04-20T21:52:50.933Z,4.43
2023-04-20T21:55:17.755Z,4.41
2023-04-20T21:57:44.518Z,4.40
2023-04-20T22:00:12.162Z,4.30
2023-04-20T22:02:39.135Z,4.20
2023-04-20T22:05:08.188Z,4.15
2023-04-20T22:07:35.063Z,4.18
2023-04-20T22:10:09.776Z,4.14
2023-04-20T22:12:39.806Z,4.29
2023-04-20T22:15:11.010Z,4.37
2023-04-20T22:17:38.329Z,4.33
2023-04-20T22:20:08.373Z,4.37
2023-04-20T22:22:35.701Z,4.33
2023-04-20T22:25:03.547Z,4.25
2023-04-20T22:27:30.437Z,4.22
2023-04-20T22:29:57.273Z,4.28
2023-04-20T22:32:24.334Z,4.32
2023-04-20T22:34:51.151Z,4.30
2023-04-20T22:37:19.468Z,4.23
2023-04-20T22:39:46.324Z,4.17
2023-04-20T22:42:13.117Z,4.30
2023-04-20T22:44:39.908Z,4.26
2023-04-20T22:47:06.695Z,4.21
2023-04-20T22:49:33.470Z,4.21
2023-04-20T22:52:00.223Z,4.22
2023-04-20T22:54:28.362Z,4.19
2023-04-20T22:56:55.187Z,4.20
2023-04-20T22:59:21.991Z,4.20
2023-04-20T23:01:48.862Z,4.21
2023-04-20T23:04:15.686Z,4.25
2023-04-20T23:06:42.590Z,4.26
2023-04-20T23:09:09.642Z,4.41
2023-04-20T23:11:37.849Z,4.45
2023-04-20T23:14:04.730Z,4.41
2023-04-20T23:16:31.678Z,4.34
2023-04-20T23:18:58.490Z,4.25
2023-04-20T23:21:25.369Z,4.19
2023-04-20T23:23:52.192Z,4.19
2023-04-20T23:26:18.962Z,4.13
2023-04-20T23:28:47.147Z,4.15
2023-04-20T23:31:13.965Z,4.22
2023-04-20T23:33:40.704Z,4.28
2023-04-20T23:36:07.892Z,4.24
2023-04-20T23:38:34.711Z,4.27
2023-04-20T23:41:01.526Z,4.21
2023-04-20T23:43:28.249Z,4.23
2023-04-20T23:45:56.401Z,4.20
2023-04-20T23:48:23.219Z,4.19
2023-04-20T23:50:49.992Z,4.30
2023-04-20T23:53:16.738Z,4.28
2023-04-20T23:55:46.115Z,4.34
2023-04-20T23:58:12.966Z,4.31
